Will Rogers World Airport
KOKC : now visible

Airfield :











YOU CAN JOIN US ON...

 
LOGIN :

Register | Disclaimer

   EN    FR    IT 

 









Legend :    VFR   Marginal VFR   IFR   Intensive IFR   Very Intensive IFR
Visi :
Ceiling :
>= 8 km
>= 3000ft
5 to 8 km
1000 to 3000 ft
1500m to 5 km
500 to 1000 ft
800 to 1500m
200 to 500 ft
< 800m
< 200 ft
Symbols :   Thunderstorms  Fog  Heavy snow  Heavy precipitations  Wind > 20 kt






- Airport Elevation : 1295 ft
- IATA code : OKC


KOKC - Will Rogers World

CURRENT METAR :
  • 071552Z 36010KT 10SM BKN100 OVC120 17/11 A3037 RMK AO2 RAB38E47 SLP276 P0000 T01670111

EXPIRED METARs :
  • 071452Z 35010KT 10SM BKN120 OVC200 17/11 A3036 RMK AO2 SLP273 60000 T01720111 53024
  • 071352Z 03009KT 10SM BKN120 17/11 A3033 RMK AO2 SLP263 T01720111

TAF KOKC
Valid from the 07 at 16:00 until the 08 at 12:00 UTC


071605Z 0716/0812 35010G15KT P6SM SCT050 BKN100 OVC120
TEMPO 0716/0719 -SHRA
FM080600 02009KT P6SM OVC100
KZFW FIR / North America



MET'MAP, your aeronautical weather chart ! - Copyright ORBIFLY December 2007 - Disclaimer

ORBIFLY MET'MAP TEAM :

Programming & Development : Alexandra Zaïnal
Original concept : Baudouin d'Aumeries
Technical & hardware support : Manuel Goepfert
Assistance : Marc-Olivier Méhu




SOURCES & CREDITS :

   NOAA       Earth
Advisory